createdAt,value
2022-11-08T00:00:49.730Z,48.03
2022-11-08T00:01:52.005Z,52.67
2022-11-08T00:02:53.612Z,48.47
2022-11-08T00:03:55.189Z,47.03
2022-11-08T00:04:56.819Z,49.83
2022-11-08T00:06:17.117Z,49.73
2022-11-08T00:07:37.169Z,49.13
2022-11-08T00:08:57.673Z,45.33
2022-11-08T00:10:17.547Z,43.90
2022-11-08T00:11:37.733Z,44.80
2022-11-08T00:12:57.731Z,43.00
2022-11-08T00:13:59.990Z,40.90
2022-11-08T00:15:02.621Z,44.20
2022-11-08T00:16:04.225Z,41.13
2022-11-08T00:17:08.640Z,41.97
2022-11-08T00:18:10.149Z,45.50
2022-11-08T00:19:11.859Z,42.03
2022-11-08T00:20:13.494Z,41.30
2022-11-08T00:21:15.059Z,43.63
2022-11-08T00:22:17.694Z,46.43
2022-11-08T00:23:19.217Z,41.03
2022-11-08T00:24:20.763Z,48.33
2022-11-08T00:25:22.351Z,43.03
2022-11-08T00:26:23.881Z,44.23
2022-11-08T00:27:26.456Z,43.60
2022-11-08T00:28:27.967Z,43.00
2022-11-08T00:29:29.532Z,42.83
2022-11-08T00:30:31.078Z,39.90
2022-11-08T00:31:32.588Z,43.03
2022-11-08T00:32:34.191Z,40.40
2022-11-08T00:33:35.731Z,41.00
2022-11-08T00:34:37.355Z,42.67
2022-11-08T00:35:38.864Z,42.73
2022-11-08T00:36:40.386Z,43.40
2022-11-08T00:37:41.946Z,44.27
2022-11-08T00:38:44.378Z,38.03
2022-11-08T00:39:46.223Z,43.03
2022-11-08T00:40:47.792Z,44.20
2022-11-08T00:41:49.346Z,39.27
2022-11-08T00:42:50.925Z,46.13
2022-11-08T00:43:52.556Z,44.37
2022-11-08T00:44:54.115Z,42.57
2022-11-08T00:45:55.632Z,43.80
2022-11-08T00:46:57.147Z,45.23
2022-11-08T00:47:58.647Z,44.33
2022-11-08T00:49:00.204Z,45.00
2022-11-08T00:50:01.870Z,42.63
2022-11-08T00:51:06.218Z,42.43
2022-11-08T00:52:07.807Z,42.70
2022-11-08T00:53:09.755Z,46.93
2022-11-08T00:54:15.679Z,41.63
2022-11-08T00:55:17.191Z,41.33
2022-11-08T00:56:18.698Z,49.37
2022-11-08T00:57:22.294Z,48.47
2022-11-08T00:58:32.842Z,42.27
2022-11-08T00:59:34.384Z,41.03
2022-11-08T01:00:35.987Z,43.97
2022-11-08T01:01:37.689Z,44.73
2022-11-08T01:02:39.327Z,43.97
2022-11-08T01:03:40.963Z,45.03
2022-11-08T01:04:42.516Z,43.77
2022-11-08T01:05:44.511Z,48.40
2022-11-08T01:06:46.715Z,42.40
2022-11-08T01:07:48.271Z,43.60
2022-11-08T01:08:50.207Z,43.27
2022-11-08T01:09:51.731Z,43.77
2022-11-08T01:10:53.345Z,46.50
2022-11-08T01:11:54.870Z,40.27
2022-11-08T01:12:56.630Z,39.50
2022-11-08T01:14:00.148Z,42.60
2022-11-08T01:15:01.761Z,45.60
2022-11-08T01:16:07.976Z,45.97
2022-11-08T01:17:09.527Z,43.37
2022-11-08T01:18:13.814Z,46.87
2022-11-08T01:19:15.369Z,48.63
2022-11-08T01:20:17.059Z,45.40
2022-11-08T01:21:18.982Z,46.37
2022-11-08T01:22:20.539Z,51.63
2022-11-08T01:23:22.057Z,48.47
2022-11-08T01:24:23.587Z,46.00
2022-11-08T01:25:25.506Z,45.97
2022-11-08T01:26:29.237Z,50.40
2022-11-08T01:27:30.935Z,46.00
2022-11-08T01:28:33.736Z,52.90
2022-11-08T01:29:35.262Z,47.63
2022-11-08T01:30:38.522Z,46.30
2022-11-08T01:31:40.026Z,49.37
2022-11-08T01:32:41.562Z,44.93
2022-11-08T01:33:48.461Z,43.63
2022-11-08T01:34:52.564Z,48.93
2022-11-08T01:35:54.071Z,51.63
2022-11-08T01:36:55.603Z,46.70
2022-11-08T01:37:57.124Z,48.27
2022-11-08T01:38:58.720Z,46.83
2022-11-08T01:40:00.324Z,47.13
2022-11-08T01:41:02.026Z,51.70
2022-11-08T01:42:03.728Z,46.43
2022-11-08T01:43:31.679Z,43.20
2022-11-08T01:44:33.198Z,42.93
2022-11-08T01:46:09.788Z,44.23
2022-11-08T01:47:11.280Z,38.97
2022-11-08T01:48:12.806Z,45.23
2022-11-08T01:49:35.096Z,46.43
2022-11-08T01:50:36.739Z,44.03
2022-11-08T01:52:00.167Z,45.13
2022-11-08T01:53:01.716Z,45.80
2022-11-08T01:54:06.799Z,43.60
2022-11-08T01:55:20.324Z,44.40
2022-11-08T01:56:21.928Z,49.07
2022-11-08T01:57:43.159Z,43.50
2022-11-08T01:58:49.828Z,45.83
2022-11-08T01:59:55.984Z,43.93
2022-11-08T02:00:59.811Z,44.70
2022-11-08T02:02:01.817Z,46.00
2022-11-08T02:03:05.270Z,47.27
2022-11-08T02:04:07.011Z,43.60
2022-11-08T02:05:25.001Z,44.13
2022-11-08T02:06:29.554Z,45.63
2022-11-08T02:07:34.333Z,43.20
2022-11-08T02:08:41.823Z,44.77
2022-11-08T02:09:46.626Z,44.17
2022-11-08T02:10:50.959Z,44.83
2022-11-08T02:11:53.719Z,44.23
2022-11-08T02:12:56.017Z,51.20
2022-11-08T02:13:58.295Z,52.03
2022-11-08T02:15:00.084Z,48.23
2022-11-08T02:16:01.990Z,47.87
2022-11-08T02:17:04.284Z,46.53
2022-11-08T02:18:06.306Z,45.70
2022-11-08T02:19:12.058Z,45.87
2022-11-08T02:20:13.722Z,46.23
2022-11-08T02:21:28.478Z,43.70
2022-11-08T02:22:38.971Z,44.40
2022-11-08T02:23:51.751Z,43.43
2022-11-08T02:24:54.318Z,44.07
2022-11-08T02:25:56.174Z,45.33
2022-11-08T02:26:57.805Z,47.23
2022-11-08T02:27:59.327Z,47.83
2022-11-08T02:29:23.646Z,43.43
2022-11-08T02:30:25.631Z,43.93
2022-11-08T02:31:27.143Z,47.67
2022-11-08T02:32:38.095Z,41.83
2022-11-08T02:33:40.540Z,48.03
2022-11-08T02:34:47.062Z,49.93
2022-11-08T02:35:52.178Z,47.07
2022-11-08T02:36:54.238Z,52.93
2022-11-08T02:37:55.847Z,49.33
2022-11-08T02:38:58.100Z,47.13
2022-11-08T02:39:59.773Z,42.90
2022-11-08T02:41:01.331Z,44.27
2022-11-08T02:42:03.369Z,47.33
2022-11-08T02:43:04.878Z,42.03
2022-11-08T02:44:06.463Z,48.23
2022-11-08T02:45:08.484Z,45.53
2022-11-08T02:46:10.177Z,44.73
2022-11-08T02:47:11.989Z,46.83
2022-11-08T02:48:14.424Z,44.90
2022-11-08T02:49:16.137Z,47.63
2022-11-08T02:50:17.774Z,46.20
2022-11-08T02:51:19.402Z,45.03
2022-11-08T02:52:21.034Z,43.47
2022-11-08T02:53:22.755Z,44.40
2022-11-08T02:54:24.281Z,46.77
2022-11-08T02:55:25.956Z,43.13
2022-11-08T02:56:27.580Z,42.77
2022-11-08T02:57:29.107Z,38.47
2022-11-08T02:58:30.682Z,39.90
2022-11-08T02:59:32.228Z,40.60
2022-11-08T03:00:34.686Z,38.63
2022-11-08T03:01:36.310Z,35.77
2022-11-08T03:02:37.975Z,35.07
2022-11-08T03:03:39.593Z,42.90
2022-11-08T03:04:41.267Z,36.03
2022-11-08T03:05:43.458Z,37.40
2022-11-08T03:06:45.046Z,43.80
2022-11-08T03:07:46.775Z,44.07
2022-11-08T03:08:48.294Z,42.83
2022-11-08T03:09:49.801Z,45.30
2022-11-08T03:10:51.454Z,48.23
2022-11-08T03:11:53.452Z,46.97
2022-11-08T03:12:56.705Z,46.07
2022-11-08T03:13:58.359Z,41.73
2022-11-08T03:14:59.871Z,44.97
2022-11-08T03:16:06.070Z,46.10
2022-11-08T03:17:07.650Z,42.13
2022-11-08T03:18:09.185Z,42.83
2022-11-08T03:19:12.133Z,44.13
2022-11-08T03:20:13.643Z,44.33
2022-11-08T03:21:15.193Z,43.90
2022-11-08T03:22:16.809Z,47.27
2022-11-08T03:23:18.366Z,46.00
2022-11-08T03:24:19.882Z,42.07
2022-11-08T03:25:21.509Z,43.13
2022-11-08T03:26:23.038Z,41.57
2022-11-08T03:27:24.975Z,41.83
2022-11-08T03:28:26.683Z,48.60
2022-11-08T03:29:28.457Z,48.83
2022-11-08T03:30:30.108Z,48.00
2022-11-08T03:31:31.611Z,44.20
2022-11-08T03:32:33.554Z,47.10
2022-11-08T03:33:35.392Z,46.00
2022-11-08T03:34:36.958Z,42.43
2022-11-08T03:35:38.562Z,44.70
2022-11-08T03:36:40.063Z,44.13
2022-11-08T03:37:41.801Z,42.67
2022-11-08T03:38:43.368Z,43.37
2022-11-08T03:39:44.883Z,43.47
2022-11-08T03:40:47.082Z,39.20
2022-11-08T03:41:48.615Z,41.87
2022-11-08T03:42:50.208Z,42.40
2022-11-08T03:43:51.806Z,43.40
2022-11-08T03:44:53.356Z,45.80
2022-11-08T03:45:54.887Z,44.93
2022-11-08T03:46:56.661Z,43.33
2022-11-08T03:47:58.299Z,47.77
2022-11-08T03:48:59.819Z,48.77
2022-11-08T03:50:01.334Z,47.17
2022-11-08T03:51:02.871Z,46.40
2022-11-08T03:52:04.584Z,45.93
2022-11-08T03:53:06.137Z,51.87
2022-11-08T03:54:07.690Z,43.10
2022-11-08T03:55:10.715Z,43.47
2022-11-08T03:56:12.254Z,41.43
2022-11-08T03:57:13.781Z,43.43
2022-11-08T03:58:15.540Z,49.47
2022-11-08T03:59:17.431Z,43.67
2022-11-08T04:00:22.460Z,42.37
2022-11-08T04:01:24.184Z,39.50
2022-11-08T04:02:25.912Z,41.57
2022-11-08T04:03:27.495Z,48.17
2022-11-08T04:04:29.022Z,49.10
2022-11-08T04:05:32.500Z,40.83
2022-11-08T04:06:34.451Z,43.00
2022-11-08T04:07:36.499Z,46.10
2022-11-08T04:08:38.189Z,47.53
2022-11-08T04:09:43.998Z,44.17
2022-11-08T04:10:45.551Z,50.20
2022-11-08T04:12:05.446Z,47.23
2022-11-08T04:13:27.067Z,43.27
2022-11-08T04:14:47.515Z,51.87
2022-11-08T04:15:54.913Z,45.77
2022-11-08T04:16:56.688Z,49.20
2022-11-08T04:18:17.704Z,42.03
2022-11-08T04:19:38.286Z,49.93
2022-11-08T04:21:03.672Z,50.37
2022-11-08T04:22:06.463Z,47.50
2022-11-08T04:23:08.003Z,50.33
2022-11-08T04:24:09.558Z,48.27
2022-11-08T04:25:11.086Z,45.60
2022-11-08T04:26:12.786Z,46.60
2022-11-08T04:27:14.315Z,50.43
2022-11-08T04:28:17.410Z,49.00
2022-11-08T04:29:19.236Z,45.27
2022-11-08T04:30:20.916Z,47.40
2022-11-08T04:31:22.565Z,50.47
2022-11-08T04:32:24.112Z,46.23
2022-11-08T04:33:25.774Z,44.53
2022-11-08T04:34:27.311Z,47.80
2022-11-08T04:35:30.357Z,47.30
2022-11-08T04:36:33.428Z,48.17
2022-11-08T04:37:34.987Z,44.27
2022-11-08T04:38:36.949Z,46.63
2022-11-08T04:39:38.790Z,43.63
2022-11-08T04:40:40.329Z,44.67
2022-11-08T04:41:41.871Z,46.93
2022-11-08T04:42:46.240Z,61.33
2022-11-08T04:43:48.886Z,69.83
2022-11-08T04:44:50.391Z,52.10
2022-11-08T04:45:51.926Z,55.10
2022-11-08T04:46:53.622Z,53.63
2022-11-08T04:47:55.192Z,46.50
2022-11-08T04:48:59.192Z,47.50
2022-11-08T04:50:00.734Z,41.30
2022-11-08T04:51:12.132Z,41.93
2022-11-08T04:52:15.420Z,38.60
2022-11-08T04:53:16.936Z,39.70
2022-11-08T04:54:18.460Z,39.73
2022-11-08T04:55:21.394Z,39.53
2022-11-08T04:56:24.241Z,40.67
2022-11-08T04:57:25.795Z,42.93
2022-11-08T04:58:28.660Z,37.00
2022-11-08T04:59:30.268Z,40.00
2022-11-08T05:00:31.768Z,39.40
2022-11-08T05:01:33.326Z,40.40
2022-11-08T05:02:35.052Z,38.03
2022-11-08T05:03:36.988Z,37.53
2022-11-08T05:04:38.532Z,35.50
2022-11-08T05:05:40.058Z,41.63
2022-11-08T05:06:41.630Z,37.77
2022-11-08T05:07:46.054Z,36.23
2022-11-08T05:08:47.786Z,35.67
2022-11-08T05:09:49.317Z,35.50
2022-11-08T05:10:50.880Z,32.70
2022-11-08T05:11:52.550Z,33.70
2022-11-08T05:12:57.050Z,31.37
2022-11-08T05:13:58.994Z,35.93
2022-11-08T05:15:00.547Z,31.77
2022-11-08T05:16:07.163Z,33.33
2022-11-08T05:17:08.724Z,33.93
2022-11-08T05:18:10.453Z,34.40
2022-11-08T05:19:13.328Z,34.63
2022-11-08T05:20:33.574Z,33.50
2022-11-08T05:21:53.319Z,36.00
2022-11-08T05:23:19.241Z,37.10
2022-11-08T05:24:20.775Z,30.77
2022-11-08T05:25:22.292Z,34.47
2022-11-08T05:26:24.136Z,33.80
2022-11-08T05:27:25.675Z,35.87
2022-11-08T05:28:32.425Z,34.80
2022-11-08T05:29:36.467Z,37.17
2022-11-08T05:30:42.022Z,32.60
2022-11-08T05:31:43.574Z,33.97
2022-11-08T05:32:45.118Z,32.93
2022-11-08T05:33:47.001Z,30.50
2022-11-08T05:34:48.598Z,34.47
2022-11-08T05:35:50.500Z,37.47
2022-11-08T05:36:52.027Z,34.03
2022-11-08T05:37:53.573Z,32.40
2022-11-08T05:38:55.838Z,37.97
2022-11-08T05:39:57.339Z,34.70
2022-11-08T05:41:07.331Z,33.53
2022-11-08T05:42:09.217Z,38.63
2022-11-08T05:43:10.846Z,37.07
2022-11-08T05:44:12.383Z,35.67
2022-11-08T05:45:13.924Z,39.83
2022-11-08T05:46:16.757Z,40.70
2022-11-08T05:47:18.287Z,41.37
2022-11-08T05:48:20.046Z,42.03
2022-11-08T05:49:21.824Z,42.90
2022-11-08T05:50:25.058Z,40.53
2022-11-08T05:51:26.762Z,36.63
2022-11-08T05:52:28.386Z,32.00
2022-11-08T05:53:30.280Z,33.47
2022-11-08T05:54:32.471Z,32.80
2022-11-08T05:55:34.036Z,38.13
2022-11-08T05:56:35.612Z,35.63
2022-11-08T05:57:37.158Z,34.73
2022-11-08T05:58:38.694Z,42.53
2022-11-08T05:59:40.291Z,41.00
2022-11-08T06:00:41.971Z,36.67
2022-11-08T06:01:43.623Z,40.07
2022-11-08T06:02:45.211Z,41.53
2022-11-08T06:03:47.820Z,40.77
2022-11-08T06:04:50.084Z,40.83
2022-11-08T06:05:51.641Z,40.57
2022-11-08T06:06:53.531Z,41.77
2022-11-08T06:07:55.305Z,40.67
2022-11-08T06:08:56.925Z,39.60
2022-11-08T06:09:58.443Z,40.00
2022-11-08T06:11:08.163Z,41.03
2022-11-08T06:12:09.730Z,41.03
2022-11-08T06:13:11.367Z,40.80
2022-11-08T06:14:13.456Z,40.90
2022-11-08T06:15:15.146Z,42.20
2022-11-08T06:16:18.178Z,43.00
2022-11-08T06:17:19.962Z,47.47
2022-11-08T06:18:21.654Z,46.33
2022-11-08T06:19:23.406Z,44.37
2022-11-08T06:20:25.017Z,41.80
2022-11-08T06:21:27.363Z,43.43
2022-11-08T06:22:32.136Z,39.03
2022-11-08T06:23:34.347Z,42.10
2022-11-08T06:24:36.307Z,44.90
2022-11-08T06:25:37.945Z,44.40
2022-11-08T06:26:39.585Z,39.07
2022-11-08T06:27:41.134Z,42.77
2022-11-08T06:28:42.707Z,41.63
2022-11-08T06:29:44.327Z,38.70
2022-11-08T06:30:46.417Z,41.07
2022-11-08T06:31:47.935Z,39.27
2022-11-08T06:32:49.448Z,39.37
2022-11-08T06:33:51.008Z,37.00
2022-11-08T06:34:52.959Z,40.07
2022-11-08T06:35:54.622Z,41.40
2022-11-08T06:36:58.715Z,38.10
2022-11-08T06:38:04.619Z,41.33
2022-11-08T06:39:09.761Z,43.27
2022-11-08T06:40:11.636Z,39.60
2022-11-08T06:41:18.827Z,39.67
2022-11-08T06:42:20.445Z,40.40
2022-11-08T06:43:22.450Z,39.33
2022-11-08T06:44:24.359Z,43.60
2022-11-08T06:45:26.695Z,41.53
2022-11-08T06:46:28.334Z,38.43
2022-11-08T06:47:29.857Z,43.33
2022-11-08T06:48:35.941Z,40.83
2022-11-08T06:49:37.819Z,40.93
2022-11-08T06:50:39.569Z,40.47
2022-11-08T06:51:41.129Z,42.40
2022-11-08T06:52:42.648Z,40.30
2022-11-08T06:53:44.697Z,37.20
2022-11-08T06:54:46.268Z,41.03
2022-11-08T06:55:47.776Z,38.77
2022-11-08T06:56:49.631Z,37.27
2022-11-08T06:57:51.561Z,45.67
2022-11-08T06:58:53.167Z,46.63
2022-11-08T06:59:54.711Z,49.83
2022-11-08T07:00:56.409Z,42.90
2022-11-08T07:01:58.129Z,42.03
2022-11-08T07:03:02.421Z,40.57
2022-11-08T07:04:04.212Z,42.17
2022-11-08T07:05:05.963Z,38.53
2022-11-08T07:06:07.957Z,41.63
2022-11-08T07:07:09.457Z,40.23
2022-11-08T07:08:11.367Z,37.73
2022-11-08T07:09:13.056Z,38.47
2022-11-08T07:10:14.585Z,39.73
2022-11-08T07:11:16.649Z,43.00
2022-11-08T07:12:18.450Z,39.67
2022-11-08T07:13:20.594Z,41.03
2022-11-08T07:14:22.518Z,43.83
2022-11-08T07:15:24.049Z,41.90
2022-11-08T07:16:25.727Z,45.37
2022-11-08T07:17:27.236Z,42.33
2022-11-08T07:18:29.383Z,42.87
2022-11-08T07:19:30.971Z,44.77
2022-11-08T07:20:33.323Z,39.73
2022-11-08T07:21:34.853Z,45.00
2022-11-08T07:22:36.516Z,42.97
2022-11-08T07:23:38.023Z,45.43
2022-11-08T07:24:39.523Z,42.50
2022-11-08T07:25:41.649Z,41.37
2022-11-08T07:26:43.213Z,41.73
2022-11-08T07:27:44.777Z,43.80
2022-11-08T07:28:46.313Z,41.53
2022-11-08T07:29:47.905Z,38.70
2022-11-08T07:30:49.741Z,41.57
2022-11-08T07:31:51.245Z,39.40
2022-11-08T07:32:52.896Z,38.73
2022-11-08T07:33:54.476Z,37.07
2022-11-08T07:34:55.989Z,38.93
2022-11-08T07:35:57.492Z,39.63
2022-11-08T07:36:59.007Z,34.97
2022-11-08T07:38:00.849Z,35.93
2022-11-08T07:39:06.418Z,37.97
2022-11-08T07:40:09.078Z,37.70
2022-11-08T07:41:12.667Z,34.67
2022-11-08T07:42:14.398Z,39.27
2022-11-08T07:43:16.668Z,35.93
2022-11-08T07:44:18.194Z,39.07
2022-11-08T07:45:19.875Z,34.10
2022-11-08T07:46:21.395Z,32.73
2022-11-08T07:47:22.937Z,37.07
2022-11-08T07:48:25.842Z,30.30
2022-11-08T07:49:27.351Z,33.23
2022-11-08T07:50:29.450Z,34.43
2022-11-08T07:51:30.967Z,35.13
2022-11-08T07:52:32.601Z,35.10
2022-11-08T07:53:34.128Z,36.47
2022-11-08T07:54:35.641Z,36.50
2022-11-08T07:55:39.037Z,35.60
2022-11-08T07:56:40.627Z,35.23
2022-11-08T07:57:42.183Z,34.53
2022-11-08T07:58:43.758Z,35.57
2022-11-08T07:59:45.459Z,35.87
2022-11-08T08:00:49.843Z,35.00
2022-11-08T08:01:51.421Z,38.87
2022-11-08T08:03:01.089Z,36.87
2022-11-08T08:04:02.777Z,37.63
2022-11-08T08:05:04.697Z,33.20
2022-11-08T08:06:06.375Z,36.87
2022-11-08T08:07:08.107Z,35.00
2022-11-08T08:08:11.624Z,34.87
2022-11-08T08:09:13.309Z,36.47
2022-11-08T08:10:14.903Z,38.27
2022-11-08T08:11:16.613Z,43.80
2022-11-08T08:12:18.159Z,37.93
2022-11-08T08:13:20.025Z,36.50
2022-11-08T08:14:21.999Z,41.00
2022-11-08T08:15:24.396Z,36.97
2022-11-08T08:16:25.966Z,39.47
2022-11-08T08:17:27.493Z,34.77
2022-11-08T08:18:30.206Z,36.87
2022-11-08T08:19:31.799Z,37.70
2022-11-08T08:20:34.964Z,33.17
2022-11-08T08:21:36.745Z,33.53
2022-11-08T08:22:46.020Z,37.43
2022-11-08T08:23:47.667Z,36.23
2022-11-08T08:24:49.243Z,33.77
2022-11-08T08:25:50.750Z,31.60
2022-11-08T08:26:52.764Z,35.50
2022-11-08T08:27:56.714Z,37.20
2022-11-08T08:28:58.367Z,36.53
2022-11-08T08:29:59.901Z,38.77
2022-11-08T08:31:01.612Z,38.10
2022-11-08T08:32:03.221Z,35.63
2022-11-08T08:33:27.331Z,38.77
2022-11-08T08:34:29.779Z,38.20
2022-11-08T08:35:31.332Z,39.70
2022-11-08T08:36:32.882Z,37.83
2022-11-08T08:37:34.427Z,38.23
2022-11-08T08:38:41.409Z,39.53
2022-11-08T08:39:46.592Z,44.03
2022-11-08T08:40:48.150Z,40.23
2022-11-08T08:41:49.653Z,41.87
2022-11-08T08:42:51.186Z,37.07
2022-11-08T08:43:52.707Z,44.80
2022-11-08T08:44:54.543Z,41.33
2022-11-08T08:46:05.038Z,41.10
2022-11-08T08:47:06.555Z,39.60
2022-11-08T08:48:08.115Z,37.67
2022-11-08T08:49:09.706Z,36.70
2022-11-08T08:50:11.286Z,40.30
2022-11-08T08:51:12.980Z,44.73
2022-11-08T08:52:14.685Z,40.73
2022-11-08T08:53:16.867Z,38.93
2022-11-08T08:54:18.744Z,46.83
2022-11-08T08:55:20.967Z,41.87
2022-11-08T08:56:22.522Z,37.63
2022-11-08T08:57:24.060Z,38.97
2022-11-08T08:58:25.571Z,37.17
2022-11-08T09:02:14.430Z,38.57
2022-11-08T09:03:16.448Z,35.83
2022-11-08T09:04:18.268Z,40.70
2022-11-08T09:05:19.869Z,35.33
2022-11-08T09:06:21.446Z,40.37
2022-11-08T09:07:23.097Z,38.30
2022-11-08T09:08:24.918Z,35.43
2022-11-08T09:09:26.441Z,41.13
2022-11-08T09:10:28.532Z,39.10
2022-11-08T09:11:30.186Z,37.72
2022-11-08T09:12:32.462Z,38.05
2022-11-08T09:13:34.097Z,40.65
2022-11-08T09:14:35.636Z,38.28
2022-11-08T09:15:39.357Z,38.65
2022-11-08T09:16:41.073Z,41.35
2022-11-08T09:17:43.026Z,37.20
2022-11-08T09:18:44.648Z,37.03
2022-11-08T09:19:46.474Z,37.75
2022-11-08T09:20:48.222Z,42.88
2022-11-08T09:21:49.821Z,36.97
2022-11-08T09:22:51.551Z,37.57
2022-11-08T09:23:53.187Z,38.33
2022-11-08T09:24:54.811Z,43.27
2022-11-08T09:26:06.353Z,38.00
2022-11-08T09:27:08.000Z,43.50
2022-11-08T09:28:10.193Z,41.37
2022-11-08T09:29:11.789Z,47.77
2022-11-08T09:30:13.479Z,47.97
2022-11-08T09:31:15.424Z,43.50
2022-11-08T09:32:24.713Z,56.83
2022-11-08T09:33:35.521Z,50.73
2022-11-08T09:34:37.116Z,53.97
2022-11-08T09:35:38.654Z,49.03
2022-11-08T09:36:40.220Z,47.40
2022-11-08T09:37:45.573Z,49.50
2022-11-08T09:38:50.291Z,55.17
2022-11-08T09:39:52.060Z,43.47
2022-11-08T09:41:00.260Z,45.53
2022-11-08T09:42:26.635Z,46.47
2022-11-08T09:43:53.439Z,48.00
2022-11-08T09:45:05.252Z,49.30
2022-11-08T09:46:11.874Z,44.17
2022-11-08T09:47:24.774Z,48.17
2022-11-08T09:48:28.578Z,42.67
2022-11-08T09:49:36.291Z,42.73
2022-11-08T09:50:47.058Z,42.03
2022-11-08T09:51:50.083Z,38.33
2022-11-08T09:53:25.832Z,48.30
2022-11-08T09:54:41.805Z,48.63
2022-11-08T09:56:01.678Z,43.10
2022-11-08T09:57:05.422Z,40.87
2022-11-08T09:58:21.241Z,50.37
2022-11-08T09:59:38.062Z,48.20
2022-11-08T10:00:40.827Z,46.87
2022-11-08T10:01:42.802Z,44.87
2022-11-08T10:02:44.721Z,55.50
2022-11-08T10:03:54.130Z,51.80
2022-11-08T10:05:00.728Z,42.73
2022-11-08T10:06:08.628Z,43.72
2022-11-08T10:07:41.525Z,49.27
2022-11-08T10:09:21.696Z,50.03
2022-11-08T10:10:34.887Z,42.40
2022-11-08T10:11:46.623Z,44.47
2022-11-08T10:13:18.658Z,51.60
2022-11-08T10:15:04.759Z,46.63
2022-11-08T10:16:43.878Z,62.60
2022-11-08T10:18:03.591Z,37.63
2022-11-08T10:19:35.084Z,45.00
2022-11-08T10:20:57.387Z,49.33
2022-11-08T10:22:27.991Z,40.80
2022-11-08T10:23:40.879Z,34.53
2022-11-08T10:25:00.939Z,37.92
2022-11-08T10:26:13.364Z,37.08
2022-11-08T10:27:22.355Z,38.83
2022-11-08T10:28:39.533Z,31.25
2022-11-08T10:29:44.870Z,37.85
2022-11-08T10:30:51.027Z,37.67
2022-11-08T10:32:01.609Z,35.53
2022-11-08T10:33:19.949Z,37.07
2022-11-08T10:34:25.819Z,32.85
2022-11-08T10:35:49.777Z,33.13
2022-11-08T10:36:58.159Z,42.13
2022-11-08T10:38:00.974Z,35.57
2022-11-08T10:39:15.782Z,39.33
2022-11-08T10:40:17.327Z,35.72
2022-11-08T10:41:23.555Z,36.83
2022-11-08T10:42:59.416Z,35.50
2022-11-08T10:44:16.754Z,34.85
2022-11-08T10:45:18.423Z,36.65
2022-11-08T10:46:38.445Z,31.45
2022-11-08T10:47:41.031Z,31.60
2022-11-08T10:48:42.593Z,34.03
2022-11-08T10:49:44.186Z,38.38
2022-11-08T10:50:49.532Z,27.60
2022-11-08T10:51:55.671Z,31.50
2022-11-08T10:53:03.614Z,31.15
2022-11-08T10:55:38.532Z,34.45
2022-11-08T10:57:00.459Z,28.02
2022-11-08T10:58:02.098Z,34.17
2022-11-08T10:59:03.906Z,35.90
2022-11-08T11:00:20.701Z,26.38
2022-11-08T11:01:24.637Z,26.20
2022-11-08T11:02:30.061Z,29.43
2022-11-08T11:03:31.924Z,28.05
2022-11-08T11:04:34.905Z,31.17
2022-11-08T11:05:55.094Z,29.55
2022-11-08T11:07:24.229Z,32.67
2022-11-08T11:08:26.425Z,25.63
2022-11-08T11:09:28.436Z,26.97
2022-11-08T11:10:35.436Z,26.37
2022-11-08T11:11:38.977Z,29.90
2022-11-08T11:12:40.531Z,32.33
2022-11-08T11:13:42.079Z,26.77
2022-11-08T11:14:43.605Z,28.55
2022-11-08T11:16:00.212Z,28.50
2022-11-08T11:17:07.981Z,27.75
2022-11-08T11:18:32.254Z,27.83
2022-11-08T11:19:34.689Z,28.73
2022-11-08T11:20:36.281Z,26.90
2022-11-08T11:21:40.023Z,31.65
2022-11-08T11:22:46.148Z,31.45
2022-11-08T11:23:52.068Z,30.83
2022-11-08T11:24:54.829Z,27.08
2022-11-08T11:25:56.414Z,24.65
2022-11-08T11:26:57.884Z,26.30
2022-11-08T11:28:00.956Z,27.30
2022-11-08T11:29:26.402Z,28.17
2022-11-08T11:30:30.454Z,26.63
2022-11-08T11:31:37.235Z,27.63
2022-11-08T11:32:39.999Z,27.70
2022-11-08T11:33:48.857Z,26.48
2022-11-08T11:34:55.067Z,30.30
2022-11-08T11:36:10.692Z,26.92
2022-11-08T11:37:20.823Z,26.98
2022-11-08T11:38:56.789Z,32.10
2022-11-08T11:40:21.333Z,28.23
2022-11-08T11:41:30.128Z,28.95
2022-11-08T11:42:46.562Z,25.77
2022-11-08T11:43:54.671Z,27.47
2022-11-08T11:45:08.522Z,26.40
2022-11-08T11:46:23.786Z,27.08
2022-11-08T11:47:48.731Z,24.73
2022-11-08T11:49:01.677Z,25.13
2022-11-08T11:50:17.097Z,26.70
2022-11-08T11:51:18.929Z,26.77
2022-11-08T11:52:20.623Z,25.77
2022-11-08T11:53:28.074Z,28.23
2022-11-08T11:54:33.990Z,24.60
2022-11-08T11:55:57.143Z,31.90
2022-11-08T11:57:08.436Z,26.55
2022-11-08T11:58:21.901Z,31.40
2022-11-08T12:00:00.794Z,24.02
2022-11-08T12:01:18.075Z,27.13
2022-11-08T12:02:29.138Z,22.48
2022-11-08T12:03:30.771Z,23.15
2022-11-08T12:04:57.025Z,23.40
2022-11-08T12:06:14.220Z,27.17
2022-11-08T12:07:25.266Z,23.88
2022-11-08T12:08:52.720Z,21.50
2022-11-08T12:10:12.858Z,21.55
2022-11-08T12:11:39.086Z,27.25
2022-11-08T12:13:17.771Z,23.03
2022-11-08T12:14:37.311Z,24.58
2022-11-08T12:15:49.700Z,24.27
2022-11-08T12:17:05.315Z,21.92
2022-11-08T12:18:42.132Z,22.40
2022-11-08T12:19:46.881Z,21.77
2022-11-08T12:21:09.670Z,23.13
2022-11-08T12:22:17.060Z,23.70
2022-11-08T12:23:47.803Z,25.17
2022-11-08T12:25:24.672Z,27.83
2022-11-08T12:26:44.919Z,29.85
2022-11-08T12:27:46.399Z,23.85
2022-11-08T12:29:25.018Z,23.02
2022-11-08T12:30:41.141Z,25.05
2022-11-08T12:31:52.396Z,23.35
2022-11-08T12:33:31.559Z,24.73
2022-11-08T12:34:57.875Z,25.60
2022-11-08T12:36:15.901Z,23.77
2022-11-08T12:37:20.345Z,25.15
2022-11-08T12:38:51.573Z,23.23
2022-11-08T12:39:58.965Z,23.83
2022-11-08T12:41:07.691Z,23.88
2022-11-08T12:42:44.506Z,23.27
2022-11-08T12:43:48.785Z,25.77
2022-11-08T12:45:19.400Z,26.58
2022-11-08T12:46:21.260Z,25.88
2022-11-08T12:47:46.543Z,21.25
2022-11-08T12:48:53.873Z,23.77
2022-11-08T12:50:20.901Z,23.92
2022-11-08T12:51:53.349Z,24.90
2022-11-08T12:53:06.938Z,27.05
2022-11-08T12:54:42.085Z,21.87
2022-11-08T12:55:47.271Z,25.48
2022-11-08T12:56:51.194Z,20.30
2022-11-08T12:57:54.725Z,24.05
2022-11-08T12:58:56.645Z,24.63
2022-11-08T13:00:05.789Z,21.80
2022-11-08T13:01:13.809Z,22.67
2022-11-08T13:02:21.083Z,20.98
2022-11-08T13:03:42.910Z,19.75
2022-11-08T13:04:50.412Z,23.23
2022-11-08T13:06:42.425Z,22.42
2022-11-08T13:07:52.260Z,20.10
2022-11-08T13:09:15.137Z,23.70
2022-11-08T13:10:47.607Z,22.13
2022-11-08T13:12:13.518Z,22.60
2022-11-08T13:13:32.876Z,23.48
2022-11-08T13:14:40.050Z,24.63
2022-11-08T13:16:18.283Z,22.63
2022-11-08T13:17:27.294Z,24.63
2022-11-08T13:18:34.127Z,23.45
2022-11-08T13:19:47.921Z,23.33
2022-11-08T13:20:50.221Z,26.88
2022-11-08T13:21:51.945Z,24.33
2022-11-08T13:23:00.897Z,23.20
2022-11-08T13:24:09.999Z,24.85
2022-11-08T13:25:23.792Z,23.52
2022-11-08T13:26:26.242Z,27.13
2022-11-08T13:27:36.916Z,22.30
2022-11-08T13:28:41.588Z,21.27
2022-11-08T13:29:43.158Z,24.45
2022-11-08T13:30:45.987Z,20.15
2022-11-08T13:32:43.605Z,23.35
2022-11-08T13:34:11.146Z,22.58
2022-11-08T13:35:30.264Z,21.90
2022-11-08T13:36:40.612Z,22.75
2022-11-08T13:38:00.249Z,25.35
2022-11-08T13:39:40.278Z,25.10
2022-11-08T13:41:06.907Z,22.13
2022-11-08T13:42:17.647Z,21.45
2022-11-08T13:43:29.644Z,23.88
2022-11-08T13:44:58.017Z,22.17
2022-11-08T13:46:27.373Z,22.13
2022-11-08T13:47:31.940Z,22.63
2022-11-08T13:48:36.096Z,22.65
2022-11-08T13:49:37.698Z,21.33
2022-11-08T13:50:46.622Z,24.42
2022-11-08T13:51:48.389Z,21.63
2022-11-08T13:53:25.199Z,21.05
2022-11-08T13:54:31.096Z,19.20
2022-11-08T13:55:41.946Z,19.88
2022-11-08T13:56:46.782Z,19.67
2022-11-08T13:57:57.470Z,19.77
2022-11-08T13:58:59.024Z,28.30
2022-11-08T14:00:00.678Z,21.17
2022-11-08T14:01:06.672Z,20.55
2022-11-08T14:02:32.181Z,18.35
2022-11-08T14:03:33.691Z,20.83
2022-11-08T14:04:40.239Z,20.05
2022-11-08T14:05:47.524Z,21.52
2022-11-08T14:07:23.929Z,20.20
2022-11-08T14:08:30.607Z,20.05
2022-11-08T14:09:43.267Z,25.30
2022-11-08T14:11:03.372Z,23.30
2022-11-08T14:12:07.554Z,25.98
2022-11-08T14:13:30.412Z,19.75
2022-11-08T14:14:38.058Z,25.55
2022-11-08T14:16:15.200Z,23.45
2022-11-08T14:17:48.845Z,20.75
2022-11-08T14:18:50.446Z,21.33
2022-11-08T14:19:52.910Z,24.52